Historyczne dane pomiarowe

Dodano dane terminowe – wersja testowa.

Dane z okresu 1951-2019

Wersja bazy: 1.34 [2019-03-16, lista zmian], aktualizacja planowana na 2019-04-15

Dane meteo z obszaru Polski uzyskane na podstawie danych udostępnionych przez Instytut Meteorologii i Gospodarki Wodnej – Państwowy Instytut Badawczy.

 

Wybierz Datę:    

       

TemperaturaWilgotnośćZachmurzenieWiatrCiśnienieWidzialnośćZjawiska
 Data    tng td wb rh cc ccl cl cm ch dir g1 g2 mslp ppp      
1994-07-29 00:00:00 14.2--- 12.0 12.986wxwxwx0wx--1017.3 976.6 0.0---wx
1994-07-29 01:00:00 14.4--- 12.2 13.186wxwxwx0wx--1017.1 976.5----wx
1994-07-29 02:00:00 14.2--- 11.8 12.885wxwxwx0wx--1016.9 976.3----wx
1994-07-29 03:00:00 13.5--- 11.6 12.488wxwxwx0wx--1017.1 976.4----wx
1994-07-29 04:00:00 13.3--- 11.4 12.288wxwxwx0wx--1017.6 976.8----wx
1994-07-29 05:00:00 14.6--- 12.9 13.690wxwxwx0wx--1017.4 976.8----wx
1994-07-29 06:00:00 17.4--- 13.4 15.077wxwxwx0wx--1016.9 976.7 0.0---wx
1994-07-29 07:00:00 22.4--- 14.0 17.259wxwxwxwx0wx--1016.1 976.6----wx
1994-07-29 08:00:00 27.2--- 16.2 20.051wxwxwxwx0wx--1015.5 976.6----wx
1994-07-29 09:00:00 32.0--- 10.3 18.826wxwxwx3wx--1014.8 976.6----wx
1994-07-29 10:00:00 33.2--- 9.3 18.823wxwxwx2wx--1014.7 976.6----wx
1994-07-29 11:00:00 32.8--- 9.1 18.623wxwxwx1wx--1014.3 976.2----wx
1994-07-29 12:00:00 34.6--- 10.1 19.623wxwxwx1wx--1013.7 975.8 0.0---wx
1994-07-29 13:00:00 32.4--- 11.4 19.428wxwxwx1wx--1014.0 975.8----wx
1994-07-29 14:00:00 31.4--- 9.8 18.426wxwxwx0wx--1014.0 975.7----wx
1994-07-29 15:00:00 31.0--- 14.2 20.236wxwxwxwx0wx--1013.9 975.6----wx
1994-07-29 16:00:00 30.6--- 15.6 20.840wxwxwxwx0wx--1013.7 975.3----wx
1994-07-29 17:00:00 29.8--- 17.9 21.849wxwxwxwx0wx--1013.8 975.3----wx
1994-07-29 18:00:00 27.6--- 15.6 19.848wxwxwxwx0wx--1014.4 975.6 0.0---wx
1994-07-29 19:00:00 22.6--- 16.1 18.467wxwxwx0wx--1015.2 975.8----wx
1994-07-29 20:00:00 20.2--- 15.1 17.073wxwxwx0wx--1015.8 976.0----wx
1994-07-29 21:00:00 18.6--- 14.4 16.076wxwx0wx--1016.2 976.2----wx
1994-07-29 22:00:00 17.2--- 13.6 15.079wxwx0wx--1016.6 976.4----wx
1994-07-29 23:00:00 15.8--- 13.8 14.688wxwx0wx--1016.8 976.4----wx

 

Źródłem pochodzenia danych jest Instytut Meteorologii i Gospodarki Wodnej – Państwowy Instytut Badawczy. Dane Instytutu Meteorologii i Gospodarki Wodnej – Państwowego Instytutu Badawczego zostały przetworzone.

Dane źródłowe można odnaleźć na stronie https://dane.imgw.pl